sensor_id;sensor_type;location;lat;lon;timestamp;pressure;altitude;pressure_sealevel;temperature;humidity
45078;BME280;60508;42.622;25.416;2024-01-06T00:00:26;96746.94;;;8.11;57.84
45078;BME280;60508;42.622;25.416;2024-01-06T00:03:04;96740.47;;;8.30;57.80
45078;BME280;60508;42.622;25.416;2024-01-06T00:05:31;96742.47;;;8.35;58.14
45078;BME280;60508;42.622;25.416;2024-01-06T00:07:57;96745.84;;;8.42;57.50
45078;BME280;60508;42.622;25.416;2024-01-06T00:10:24;96755.53;;;8.13;58.30
45078;BME280;60508;42.622;25.416;2024-01-06T00:13:11;96752.56;;;8.33;58.54
45078;BME280;60508;42.622;25.416;2024-01-06T00:15:38;96753.22;;;8.16;58.75
45078;BME280;60508;42.622;25.416;2024-01-06T00:18:04;96738.19;;;8.15;59.33
45078;BME280;60508;42.622;25.416;2024-01-06T00:20:31;96732.44;;;8.30;58.79
45078;BME280;60508;42.622;25.416;2024-01-06T00:22:58;96744.25;;;8.53;57.74
45078;BME280;60508;42.622;25.416;2024-01-06T00:25:25;96738.75;;;8.48;57.22
45078;BME280;60508;42.622;25.416;2024-01-06T00:27:52;96758.22;;;8.67;57.49
45078;BME280;60508;42.622;25.416;2024-01-06T00:30:19;96778.00;;;8.54;57.47
45078;BME280;60508;42.622;25.416;2024-01-06T00:32:45;96764.56;;;8.42;58.94
45078;BME280;60508;42.622;25.416;2024-01-06T00:35:32;96751.81;;;8.14;60.44
45078;BME280;60508;42.622;25.416;2024-01-06T00:38:00;96749.78;;;7.97;61.37
45078;BME280;60508;42.622;25.416;2024-01-06T00:40:27;96745.50;;;7.96;61.23
45078;BME280;60508;42.622;25.416;2024-01-06T00:42:54;96745.09;;;7.93;61.11
45078;BME280;60508;42.622;25.416;2024-01-06T00:45:20;96738.69;;;7.82;62.04
45078;BME280;60508;42.622;25.416;2024-01-06T00:47:48;96741.16;;;7.95;61.86
45078;BME280;60508;42.622;25.416;2024-01-06T00:50:35;96735.91;;;7.89;61.64
45078;BME280;60508;42.622;25.416;2024-01-06T00:53:02;96727.69;;;7.41;63.67
45078;BME280;60508;42.622;25.416;2024-01-06T00:55:49;96717.28;;;7.52;64.10
45078;BME280;60508;42.622;25.416;2024-01-06T00:58:16;96720.13;;;7.68;63.72
45078;BME280;60508;42.622;25.416;2024-01-06T01:01:03;96711.41;;;7.73;63.00
45078;BME280;60508;42.622;25.416;2024-01-06T01:03:30;96715.38;;;8.01;60.81
45078;BME280;60508;42.622;25.416;2024-01-06T01:06:17;96716.97;;;7.90;61.05
45078;BME280;60508;42.622;25.416;2024-01-06T01:08:44;96724.34;;;8.07;61.16
45078;BME280;60508;42.622;25.416;2024-01-06T01:11:31;96728.16;;;7.68;61.88
45078;BME280;60508;42.622;25.416;2024-01-06T01:13:57;96740.97;;;7.78;62.19
45078;BME280;60508;42.622;25.416;2024-01-06T01:16:44;96742.34;;;7.69;62.52
45078;BME280;60508;42.622;25.416;2024-01-06T01:19:11;96736.03;;;7.63;62.83
45078;BME280;60508;42.622;25.416;2024-01-06T01:21:38;96733.28;;;7.70;62.28
45078;BME280;60508;42.622;25.416;2024-01-06T01:24:25;96714.50;;;7.58;62.64
45078;BME280;60508;42.622;25.416;2024-01-06T01:26:51;96691.00;;;7.48;63.60
45078;BME280;60508;42.622;25.416;2024-01-06T01:29:18;96691.88;;;7.61;62.70
45078;BME280;60508;42.622;25.416;2024-01-06T01:31:46;96679.75;;;7.58;62.81
45078;BME280;60508;42.622;25.416;2024-01-06T01:34:13;96675.81;;;7.61;62.68
45078;BME280;60508;42.622;25.416;2024-01-06T01:36:40;96667.38;;;7.76;61.70
45078;BME280;60508;42.622;25.416;2024-01-06T01:39:07;96669.19;;;7.63;61.97
45078;BME280;60508;42.622;25.416;2024-01-06T01:41:53;96669.53;;;7.67;61.86
45078;BME280;60508;42.622;25.416;2024-01-06T01:44:20;96668.81;;;7.60;61.91
45078;BME280;60508;42.622;25.416;2024-01-06T01:46:47;96664.34;;;7.72;60.80
45078;BME280;60508;42.622;25.416;2024-01-06T01:49:14;96685.31;;;7.87;60.34
45078;BME280;60508;42.622;25.416;2024-01-06T01:51:42;96675.72;;;7.67;61.18
45078;BME280;60508;42.622;25.416;2024-01-06T01:54:30;96659.69;;;7.37;62.78
45078;BME280;60508;42.622;25.416;2024-01-06T01:56:57;96657.09;;;7.30;63.68
45078;BME280;60508;42.622;25.416;2024-01-06T01:59:44;96661.53;;;7.37;63.34
45078;BME280;60508;42.622;25.416;2024-01-06T02:02:12;96667.66;;;7.25;64.03
45078;BME280;60508;42.622;25.416;2024-01-06T02:04:38;96689.84;;;7.26;64.13
45078;BME280;60508;42.622;25.416;2024-01-06T02:07:25;96689.75;;;7.32;63.71
45078;BME280;60508;42.622;25.416;2024-01-06T02:09:52;96673.44;;;7.04;65.37
45078;BME280;60508;42.622;25.416;2024-01-06T02:12:18;96657.19;;;6.87;65.58
45078;BME280;60508;42.622;25.416;2024-01-06T02:15:05;96656.00;;;6.83;66.14
45078;BME280;60508;42.622;25.416;2024-01-06T02:17:32;96663.19;;;7.01;64.76
45078;BME280;60508;42.622;25.416;2024-01-06T02:19:59;96668.59;;;7.31;63.07
45078;BME280;60508;42.622;25.416;2024-01-06T02:22:25;96671.44;;;7.18;63.00
45078;BME280;60508;42.622;25.416;2024-01-06T02:24:53;96655.53;;;7.23;62.94
45078;BME280;60508;42.622;25.416;2024-01-06T02:27:40;96655.88;;;7.45;61.86
45078;BME280;60508;42.622;25.416;2024-01-06T02:30:07;96648.66;;;7.45;61.50
45078;BME280;60508;42.622;25.416;2024-01-06T02:32:54;96648.47;;;7.59;61.45
45078;BME280;60508;42.622;25.416;2024-01-06T02:35:21;96642.59;;;7.38;62.20
45078;BME280;60508;42.622;25.416;2024-01-06T02:37:47;96651.34;;;7.45;62.81
45078;BME280;60508;42.622;25.416;2024-01-06T02:40:14;96642.53;;;7.57;61.74
45078;BME280;60508;42.622;25.416;2024-01-06T02:42:41;96639.41;;;7.60;62.48
45078;BME280;60508;42.622;25.416;2024-01-06T02:45:08;96633.13;;;7.54;61.73
45078;BME280;60508;42.622;25.416;2024-01-06T02:47:58;96651.53;;;7.62;61.32
45078;BME280;60508;42.622;25.416;2024-01-06T02:50:25;96643.88;;;7.66;61.48
45078;BME280;60508;42.622;25.416;2024-01-06T02:52:52;96633.97;;;7.66;61.02
45078;BME280;60508;42.622;25.416;2024-01-06T02:55:19;96636.41;;;7.68;61.32
45078;BME280;60508;42.622;25.416;2024-01-06T02:57:45;96636.97;;;7.58;61.54
45078;BME280;60508;42.622;25.416;2024-01-06T03:00:12;96634.41;;;7.52;61.26
45078;BME280;60508;42.622;25.416;2024-01-06T03:02:39;96638.41;;;7.42;61.98
45078;BME280;60508;42.622;25.416;2024-01-06T03:05:09;96647.63;;;7.46;61.48
45078;BME280;60508;42.622;25.416;2024-01-06T03:07:56;96642.31;;;7.58;61.31
45078;BME280;60508;42.622;25.416;2024-01-06T03:10:23;96636.81;;;7.41;61.92
45078;BME280;60508;42.622;25.416;2024-01-06T03:13:10;96649.97;;;7.24;63.07
45078;BME280;60508;42.622;25.416;2024-01-06T03:15:41;96651.59;;;7.25;62.76
45078;BME280;60508;42.622;25.416;2024-01-06T03:18:07;96636.88;;;7.04;63.76
45078;BME280;60508;42.622;25.416;2024-01-06T03:20:35;96637.16;;;6.78;64.72
45078;BME280;60508;42.622;25.416;2024-01-06T03:23:01;96634.19;;;6.86;65.33
45078;BME280;60508;42.622;25.416;2024-01-06T03:25:48;96628.03;;;6.85;65.54
45078;BME280;60508;42.622;25.416;2024-01-06T03:28:15;96629.22;;;6.89;65.63
45078;BME280;60508;42.622;25.416;2024-01-06T03:30:49;96604.72;;;6.92;65.50
45078;BME280;60508;42.622;25.416;2024-01-06T03:33:25;96606.25;;;6.88;65.88
45078;BME280;60508;42.622;25.416;2024-01-06T03:35:52;96600.19;;;7.11;64.80
45078;BME280;60508;42.622;25.416;2024-01-06T03:38:18;96609.31;;;7.22;64.37
45078;BME280;60508;42.622;25.416;2024-01-06T03:41:05;96623.88;;;7.08;63.96
45078;BME280;60508;42.622;25.416;2024-01-06T03:43:32;96613.47;;;7.18;63.18
45078;BME280;60508;42.622;25.416;2024-01-06T03:45:58;96618.44;;;7.15;63.31
45078;BME280;60508;42.622;25.416;2024-01-06T03:48:47;96616.88;;;7.25;63.25
45078;BME280;60508;42.622;25.416;2024-01-06T03:51:14;96617.22;;;7.29;62.30
45078;BME280;60508;42.622;25.416;2024-01-06T03:53:40;96624.28;;;6.93;64.35
45078;BME280;60508;42.622;25.416;2024-01-06T03:56:27;96620.44;;;7.01;63.94
45078;BME280;60508;42.622;25.416;2024-01-06T03:58:54;96613.50;;;6.81;64.24
45078;BME280;60508;42.622;25.416;2024-01-06T04:01:20;96607.66;;;6.72;64.60
45078;BME280;60508;42.622;25.416;2024-01-06T04:03:48;96609.34;;;6.85;64.02
45078;BME280;60508;42.622;25.416;2024-01-06T04:06:14;96614.03;;;6.90;64.01
45078;BME280;60508;42.622;25.416;2024-01-06T04:09:02;96624.84;;;6.76;63.81
45078;BME280;60508;42.622;25.416;2024-01-06T04:11:28;96607.03;;;6.52;65.14
45078;BME280;60508;42.622;25.416;2024-01-06T04:13:55;96604.00;;;6.48;65.80
45078;BME280;60508;42.622;25.416;2024-01-06T04:16:42;96607.03;;;6.33;66.63
45078;BME280;60508;42.622;25.416;2024-01-06T04:19:09;96620.09;;;6.42;65.92
45078;BME280;60508;42.622;25.416;2024-01-06T04:21:37;96615.78;;;6.40;66.08
45078;BME280;60508;42.622;25.416;2024-01-06T04:24:04;96618.59;;;6.27;66.13
45078;BME280;60508;42.622;25.416;2024-01-06T04:26:51;96616.66;;;6.34;66.72
45078;BME280;60508;42.622;25.416;2024-01-06T04:29:18;96616.78;;;6.46;66.49
45078;BME280;60508;42.622;25.416;2024-01-06T04:31:45;96627.84;;;6.25;67.56
45078;BME280;60508;42.622;25.416;2024-01-06T04:34:11;96628.28;;;6.21;67.82
45078;BME280;60508;42.622;25.416;2024-01-06T04:36:38;96624.59;;;6.22;67.81
45078;BME280;60508;42.622;25.416;2024-01-06T04:39:04;96628.75;;;6.37;67.03
45078;BME280;60508;42.622;25.416;2024-01-06T04:41:31;96624.44;;;6.36;67.12
45078;BME280;60508;42.622;25.416;2024-01-06T04:43:58;96631.84;;;6.15;68.10
45078;BME280;60508;42.622;25.416;2024-01-06T04:46:24;96638.63;;;6.11;68.10
45078;BME280;60508;42.622;25.416;2024-01-06T04:48:51;96634.47;;;5.90;69.06
45078;BME280;60508;42.622;25.416;2024-01-06T04:51:38;96627.88;;;5.99;69.45
45078;BME280;60508;42.622;25.416;2024-01-06T04:54:05;96626.03;;;6.18;69.03
45078;BME280;60508;42.622;25.416;2024-01-06T04:56:52;96632.22;;;6.37;68.88
45078;BME280;60508;42.622;25.416;2024-01-06T04:59:19;96620.97;;;6.35;68.79
45078;BME280;60508;42.622;25.416;2024-01-06T05:01:45;96623.13;;;6.45;68.64
45078;BME280;60508;42.622;25.416;2024-01-06T05:04:32;96622.31;;;6.63;68.47
45078;BME280;60508;42.622;25.416;2024-01-06T05:06:59;96619.44;;;6.83;67.67
45078;BME280;60508;42.622;25.416;2024-01-06T05:09:46;96618.63;;;6.83;67.36
45078;BME280;60508;42.622;25.416;2024-01-06T05:12:13;96617.06;;;6.93;67.62
45078;BME280;60508;42.622;25.416;2024-01-06T05:14:39;96617.78;;;7.01;66.69
45078;BME280;60508;42.622;25.416;2024-01-06T05:17:27;96616.31;;;7.05;66.55
45078;BME280;60508;42.622;25.416;2024-01-06T05:19:55;96601.31;;;7.04;66.31
45078;BME280;60508;42.622;25.416;2024-01-06T05:22:42;96607.41;;;6.92;66.55
45078;BME280;60508;42.622;25.416;2024-01-06T05:25:10;96603.53;;;7.07;65.98
45078;BME280;60508;42.622;25.416;2024-01-06T05:27:37;96611.13;;;7.22;65.62
45078;BME280;60508;42.622;25.416;2024-01-06T05:30:25;96608.56;;;7.15;65.62
45078;BME280;60508;42.622;25.416;2024-01-06T05:32:52;96610.75;;;6.88;66.28
45078;BME280;60508;42.622;25.416;2024-01-06T05:35:39;96613.66;;;6.86;66.63
45078;BME280;60508;42.622;25.416;2024-01-06T05:38:06;96615.19;;;6.57;67.73
45078;BME280;60508;42.622;25.416;2024-01-06T05:40:32;96614.25;;;6.70;67.56
45078;BME280;60508;42.622;25.416;2024-01-06T05:43:19;96617.59;;;6.84;67.19
45078;BME280;60508;42.622;25.416;2024-01-06T05:45:46;96616.47;;;6.54;67.92
45078;BME280;60508;42.622;25.416;2024-01-06T05:48:13;96627.69;;;6.19;69.69
45078;BME280;60508;42.622;25.416;2024-01-06T05:50:40;96630.69;;;6.48;68.77
45078;BME280;60508;42.622;25.416;2024-01-06T05:53:07;96635.38;;;6.53;68.22
45078;BME280;60508;42.622;25.416;2024-01-06T05:55:34;96634.53;;;6.34;69.22
45078;BME280;60508;42.622;25.416;2024-01-06T05:58:01;96631.94;;;6.46;69.04
45078;BME280;60508;42.622;25.416;2024-01-06T06:00:28;96626.16;;;6.49;68.99
45078;BME280;60508;42.622;25.416;2024-01-06T06:03:17;96641.81;;;6.45;69.44
45078;BME280;60508;42.622;25.416;2024-01-06T06:05:44;96643.53;;;6.39;69.69
45078;BME280;60508;42.622;25.416;2024-01-06T06:08:11;96639.19;;;6.64;69.07
45078;BME280;60508;42.622;25.416;2024-01-06T06:10:37;96629.81;;;6.54;69.06
45078;BME280;60508;42.622;25.416;2024-01-06T06:13:17;96632.56;;;6.66;68.90
45078;BME280;60508;42.622;25.416;2024-01-06T06:15:44;96629.69;;;6.86;68.31
45078;BME280;60508;42.622;25.416;2024-01-06T06:18:11;96627.97;;;6.73;68.75
45078;BME280;60508;42.622;25.416;2024-01-06T06:20:57;96627.28;;;6.78;68.25
45078;BME280;60508;42.622;25.416;2024-01-06T06:23:24;96626.94;;;6.74;68.03
45078;BME280;60508;42.622;25.416;2024-01-06T06:25:50;96630.63;;;6.92;67.35
45078;BME280;60508;42.622;25.416;2024-01-06T06:28:37;96619.06;;;6.61;68.63
45078;BME280;60508;42.622;25.416;2024-01-06T06:31:04;96610.16;;;6.49;69.31
45078;BME280;60508;42.622;25.416;2024-01-06T06:33:30;96612.09;;;6.42;69.93
45078;BME280;60508;42.622;25.416;2024-01-06T06:36:17;96610.16;;;6.49;70.22
45078;BME280;60508;42.622;25.416;2024-01-06T06:38:44;96615.16;;;6.64;70.01
45078;BME280;60508;42.622;25.416;2024-01-06T06:41:30;96621.81;;;6.91;68.59
45078;BME280;60508;42.622;25.416;2024-01-06T06:43:57;96623.22;;;6.94;68.71
45078;BME280;60508;42.622;25.416;2024-01-06T06:46:24;96614.78;;;6.79;69.19
45078;BME280;60508;42.622;25.416;2024-01-06T06:48:51;96619.66;;;7.00;68.46
45078;BME280;60508;42.622;25.416;2024-01-06T06:51:17;96622.41;;;6.93;68.32
45078;BME280;60508;42.622;25.416;2024-01-06T06:53:44;96620.31;;;7.14;68.16
45078;BME280;60508;42.622;25.416;2024-01-06T06:56:11;96625.66;;;7.14;68.39
45078;BME280;60508;42.622;25.416;2024-01-06T06:58:57;96608.84;;;7.25;68.00
45078;BME280;60508;42.622;25.416;2024-01-06T07:01:26;96620.25;;;7.32;67.34
45078;BME280;60508;42.622;25.416;2024-01-06T07:03:53;96630.28;;;7.37;67.19
45078;BME280;60508;42.622;25.416;2024-01-06T07:06:40;96626.00;;;7.18;68.32
45078;BME280;60508;42.622;25.416;2024-01-06T07:09:06;96630.22;;;7.25;67.77
45078;BME280;60508;42.622;25.416;2024-01-06T07:11:33;96625.56;;;7.21;67.88
45078;BME280;60508;42.622;25.416;2024-01-06T07:14:00;96610.09;;;7.23;68.00
45078;BME280;60508;42.622;25.416;2024-01-06T07:16:27;96610.38;;;7.33;68.12
45078;BME280;60508;42.622;25.416;2024-01-06T07:19:14;96599.53;;;7.58;67.63
45078;BME280;60508;42.622;25.416;2024-01-06T07:21:42;96602.34;;;7.63;67.40
45078;BME280;60508;42.622;25.416;2024-01-06T07:24:08;96611.09;;;7.71;66.94
45078;BME280;60508;42.622;25.416;2024-01-06T07:26:35;96599.22;;;7.66;67.72
45078;BME280;60508;42.622;25.416;2024-01-06T07:29:03;96599.75;;;7.57;67.60
45078;BME280;60508;42.622;25.416;2024-01-06T07:31:29;96601.50;;;7.51;67.09
45078;BME280;60508;42.622;25.416;2024-01-06T07:33:56;96608.13;;;7.48;68.15
45078;BME280;60508;42.622;25.416;2024-01-06T07:36:43;96606.91;;;7.32;69.39
45078;BME280;60508;42.622;25.416;2024-01-06T07:39:11;96590.19;;;7.37;70.03
45078;BME280;60508;42.622;25.416;2024-01-06T07:41:38;96598.78;;;7.39;70.17
45078;BME280;60508;42.622;25.416;2024-01-06T07:44:25;96596.34;;;7.07;71.36
45078;BME280;60508;42.622;25.416;2024-01-06T07:46:52;96589.09;;;7.26;71.10
45078;BME280;60508;42.622;25.416;2024-01-06T07:49:19;96590.09;;;7.44;70.57
45078;BME280;60508;42.622;25.416;2024-01-06T07:51:47;96593.25;;;7.53;70.54
45078;BME280;60508;42.622;25.416;2024-01-06T07:54:33;96590.16;;;7.79;68.95
45078;BME280;60508;42.622;25.416;2024-01-06T07:57:00;96594.03;;;7.83;67.13
45078;BME280;60508;42.622;25.416;2024-01-06T07:59:26;96606.44;;;7.66;68.04
45078;BME280;60508;42.622;25.416;2024-01-06T08:01:53;96610.63;;;7.74;68.13
45078;BME280;60508;42.622;25.416;2024-01-06T08:04:21;96615.53;;;7.89;68.15
45078;BME280;60508;42.622;25.416;2024-01-06T08:06:47;96601.03;;;7.96;67.50
45078;BME280;60508;42.622;25.416;2024-01-06T08:09:14;96598.13;;;7.98;68.17
45078;BME280;60508;42.622;25.416;2024-01-06T08:12:01;96602.31;;;8.17;66.69
45078;BME280;60508;42.622;25.416;2024-01-06T08:14:29;96594.50;;;8.04;66.84
45078;BME280;60508;42.622;25.416;2024-01-06T08:17:16;96584.72;;;8.10;67.21
45078;BME280;60508;42.622;25.416;2024-01-06T08:19:43;96577.84;;;8.14;67.45
45078;BME280;60508;42.622;25.416;2024-01-06T08:22:13;96578.47;;;8.51;66.67
45078;BME280;60508;42.622;25.416;2024-01-06T08:24:40;96603.31;;;8.87;65.75
45078;BME280;60508;42.622;25.416;2024-01-06T08:27:07;96587.91;;;8.94;64.79
45078;BME280;60508;42.622;25.416;2024-01-06T08:29:33;96591.75;;;8.99;64.80
45078;BME280;60508;42.622;25.416;2024-01-06T08:32:21;96591.84;;;9.04;64.42
45078;BME280;60508;42.622;25.416;2024-01-06T08:34:48;96592.84;;;8.86;65.12
45078;BME280;60508;42.622;25.416;2024-01-06T08:37:22;96599.28;;;8.61;65.65
45078;BME280;60508;42.622;25.416;2024-01-06T08:39:52;96580.03;;;8.76;64.56
45078;BME280;60508;42.622;25.416;2024-01-06T08:42:19;96590.28;;;8.79;65.11
45078;BME280;60508;42.622;25.416;2024-01-06T08:44:46;96585.00;;;8.96;63.82
45078;BME280;60508;42.622;25.416;2024-01-06T08:47:13;96583.91;;;9.09;63.81
45078;BME280;60508;42.622;25.416;2024-01-06T08:50:00;96590.34;;;9.08;63.70
45078;BME280;60508;42.622;25.416;2024-01-06T08:52:27;96584.38;;;9.06;63.99
45078;BME280;60508;42.622;25.416;2024-01-06T08:54:54;96586.00;;;9.07;64.35
45078;BME280;60508;42.622;25.416;2024-01-06T08:57:21;96588.31;;;9.15;63.47
45078;BME280;60508;42.622;25.416;2024-01-06T08:59:48;96577.44;;;9.22;63.08
45078;BME280;60508;42.622;25.416;2024-01-06T09:02:35;96572.69;;;9.12;63.83
45078;BME280;60508;42.622;25.416;2024-01-06T09:05:01;96572.53;;;9.47;63.73
45078;BME280;60508;42.622;25.416;2024-01-06T09:07:28;96559.41;;;9.80;62.80
45078;BME280;60508;42.622;25.416;2024-01-06T09:10:18;96564.72;;;9.92;62.55
45078;BME280;60508;42.622;25.416;2024-01-06T09:12:45;96557.28;;;9.99;61.59
45078;BME280;60508;42.622;25.416;2024-01-06T09:15:32;96561.94;;;9.86;61.76
45078;BME280;60508;42.622;25.416;2024-01-06T09:18:00;96564.78;;;9.97;61.49
45078;BME280;60508;42.622;25.416;2024-01-06T09:20:47;96568.03;;;9.99;61.85
45078;BME280;60508;42.622;25.416;2024-01-06T09:23:17;96553.63;;;10.39;60.44
45078;BME280;60508;42.622;25.416;2024-01-06T09:26:04;96555.03;;;10.86;58.84
45078;BME280;60508;42.622;25.416;2024-01-06T09:28:32;96548.94;;;10.95;58.05
45078;BME280;60508;42.622;25.416;2024-01-06T09:31:19;96546.25;;;10.95;57.94
45078;BME280;60508;42.622;25.416;2024-01-06T09:33:46;96540.34;;;10.93;57.69
45078;BME280;60508;42.622;25.416;2024-01-06T09:36:13;96538.41;;;10.89;57.82
45078;BME280;60508;42.622;25.416;2024-01-06T09:39:01;96537.16;;;10.74;58.34
45078;BME280;60508;42.622;25.416;2024-01-06T09:41:27;96520.72;;;10.71;58.07
45078;BME280;60508;42.622;25.416;2024-01-06T09:44:14;96515.25;;;10.66;58.67
45078;BME280;60508;42.622;25.416;2024-01-06T09:46:42;96509.28;;;10.58;58.90
45078;BME280;60508;42.622;25.416;2024-01-06T09:49:31;96517.19;;;10.70;58.65
45078;BME280;60508;42.622;25.416;2024-01-06T09:51:59;96514.97;;;10.84;58.05
45078;BME280;60508;42.622;25.416;2024-01-06T09:54:30;96507.94;;;10.83;57.87
45078;BME280;60508;42.622;25.416;2024-01-06T09:57:20;96503.72;;;10.65;58.13
45078;BME280;60508;42.622;25.416;2024-01-06T09:59:47;96492.09;;;10.59;58.54
45078;BME280;60508;42.622;25.416;2024-01-06T10:02:15;96496.34;;;10.55;58.76
45078;BME280;60508;42.622;25.416;2024-01-06T10:04:43;96491.53;;;10.35;59.45
45078;BME280;60508;42.622;25.416;2024-01-06T10:07:31;96473.28;;;10.37;59.81
45078;BME280;60508;42.622;25.416;2024-01-06T10:09:58;96458.38;;;10.47;59.64
45078;BME280;60508;42.622;25.416;2024-01-06T10:12:45;96458.97;;;10.54;59.62
45078;BME280;60508;42.622;25.416;2024-01-06T10:15:13;96461.81;;;10.25;60.19
45078;BME280;60508;42.622;25.416;2024-01-06T10:17:59;96457.78;;;10.22;60.73
45078;BME280;60508;42.622;25.416;2024-01-06T10:20:29;96460.72;;;10.21;61.07
45078;BME280;60508;42.622;25.416;2024-01-06T10:23:16;96461.41;;;10.33;60.90
45078;BME280;60508;42.622;25.416;2024-01-06T10:25:43;96462.59;;;10.43;60.59
45078;BME280;60508;42.622;25.416;2024-01-06T10:28:13;96460.38;;;10.56;60.43
45078;BME280;60508;42.622;25.416;2024-01-06T10:31:03;96457.44;;;10.58;60.53
45078;BME280;60508;42.622;25.416;2024-01-06T10:33:32;96445.22;;;10.72;59.77
45078;BME280;60508;42.622;25.416;2024-01-06T10:35:59;96433.69;;;10.77;59.17
45078;BME280;60508;42.622;25.416;2024-01-06T10:38:27;96435.19;;;10.63;59.90
45078;BME280;60508;42.622;25.416;2024-01-06T10:41:15;96438.69;;;10.90;59.10
45078;BME280;60508;42.622;25.416;2024-01-06T10:43:43;96431.38;;;10.86;59.11
45078;BME280;60508;42.622;25.416;2024-01-06T10:46:10;96430.72;;;11.01;58.94
45078;BME280;60508;42.622;25.416;2024-01-06T10:48:38;96433.06;;;11.19;58.35
45078;BME280;60508;42.622;25.416;2024-01-06T10:51:32;96423.34;;;11.18;58.67
45078;BME280;60508;42.622;25.416;2024-01-06T10:54:01;96417.09;;;11.45;57.69
45078;BME280;60508;42.622;25.416;2024-01-06T10:56:49;96407.16;;;11.45;58.14
45078;BME280;60508;42.622;25.416;2024-01-06T10:59:18;96409.31;;;11.43;58.22
45078;BME280;60508;42.622;25.416;2024-01-06T11:02:10;96406.81;;;11.74;56.95
45078;BME280;60508;42.622;25.416;2024-01-06T11:04:39;96409.00;;;11.77;56.78
45078;BME280;60508;42.622;25.416;2024-01-06T11:07:28;96399.31;;;11.81;56.39
45078;BME280;60508;42.622;25.416;2024-01-06T11:10:09;96393.31;;;11.69;56.81
45078;BME280;60508;42.622;25.416;2024-01-06T11:12:39;96390.28;;;11.55;57.80
45078;BME280;60508;42.622;25.416;2024-01-06T11:15:06;96393.84;;;11.66;57.79
45078;BME280;60508;42.622;25.416;2024-01-06T11:17:52;96391.69;;;11.63;57.29
45078;BME280;60508;42.622;25.416;2024-01-06T11:21:15;96382.50;;;11.59;58.03
45078;BME280;60508;42.622;25.416;2024-01-06T11:23:45;96382.00;;;11.67;57.66
45078;BME280;60508;42.622;25.416;2024-01-06T11:26:32;96385.34;;;11.42;58.65
45078;BME280;60508;42.622;25.416;2024-01-06T11:29:00;96388.84;;;11.42;58.41
45078;BME280;60508;42.622;25.416;2024-01-06T11:31:31;96387.44;;;11.35;59.07
45078;BME280;60508;42.622;25.416;2024-01-06T11:34:18;96393.81;;;11.23;59.40
45078;BME280;60508;42.622;25.416;2024-01-06T11:36:48;96377.63;;;11.18;59.73
45078;BME280;60508;42.622;25.416;2024-01-06T11:39:41;96371.72;;;11.16;59.71
45078;BME280;60508;42.622;25.416;2024-01-06T11:42:11;96356.63;;;11.15;60.08
45078;BME280;60508;42.622;25.416;2024-01-06T11:45:02;96350.22;;;11.16;60.16
45078;BME280;60508;42.622;25.416;2024-01-06T11:47:29;96353.16;;;11.14;60.24
45078;BME280;60508;42.622;25.416;2024-01-06T11:50:18;96344.16;;;10.99;60.46
45078;BME280;60508;42.622;25.416;2024-01-06T11:52:44;96346.19;;;10.86;61.25
45078;BME280;60508;42.622;25.416;2024-01-06T11:55:11;96340.34;;;10.94;61.09
45078;BME280;60508;42.622;25.416;2024-01-06T11:57:59;96340.34;;;10.94;61.08
45078;BME280;60508;42.622;25.416;2024-01-06T12:00:30;96339.00;;;10.92;61.29
45078;BME280;60508;42.622;25.416;2024-01-06T12:03:17;96336.81;;;10.89;61.22
45078;BME280;60508;42.622;25.416;2024-01-06T12:05:43;96332.25;;;10.89;61.42
45078;BME280;60508;42.622;25.416;2024-01-06T12:08:30;96334.94;;;10.89;61.59
45078;BME280;60508;42.622;25.416;2024-01-06T12:11:04;96331.09;;;10.80;61.75
45078;BME280;60508;42.622;25.416;2024-01-06T12:13:31;96330.50;;;10.73;62.33
45078;BME280;60508;42.622;25.416;2024-01-06T12:15:59;96331.22;;;10.63;62.41
45078;BME280;60508;42.622;25.416;2024-01-06T12:18:47;96324.47;;;10.60;62.68
45078;BME280;60508;42.622;25.416;2024-01-06T12:21:13;96331.22;;;10.63;62.72
45078;BME280;60508;42.622;25.416;2024-01-06T12:23:40;96332.13;;;10.74;62.74
45078;BME280;60508;42.622;25.416;2024-01-06T12:26:28;96329.22;;;10.81;62.15
45078;BME280;60508;42.622;25.416;2024-01-06T12:28:55;96333.97;;;10.73;62.31
45078;BME280;60508;42.622;25.416;2024-01-06T12:31:43;96345.50;;;10.69;62.67
45078;BME280;60508;42.622;25.416;2024-01-06T12:34:10;96336.53;;;10.58;62.97
45078;BME280;60508;42.622;25.416;2024-01-06T12:36:38;96336.44;;;10.48;63.59
45078;BME280;60508;42.622;25.416;2024-01-06T12:39:29;96335.41;;;10.54;63.30
45078;BME280;60508;42.622;25.416;2024-01-06T12:41:56;96341.03;;;10.52;63.40
45078;BME280;60508;42.622;25.416;2024-01-06T12:44:23;96340.78;;;10.32;64.49
45078;BME280;60508;42.622;25.416;2024-01-06T12:46:50;96336.13;;;10.44;64.08
45078;BME280;60508;42.622;25.416;2024-01-06T12:49:16;96334.81;;;10.47;64.14
45078;BME280;60508;42.622;25.416;2024-01-06T12:52:04;96323.19;;;10.41;64.39
45078;BME280;60508;42.622;25.416;2024-01-06T12:54:30;96325.63;;;10.43;64.42
45078;BME280;60508;42.622;25.416;2024-01-06T12:57:05;96332.63;;;10.44;64.59
45078;BME280;60508;42.622;25.416;2024-01-06T12:59:37;96332.13;;;10.47;64.81
45078;BME280;60508;42.622;25.416;2024-01-06T13:02:04;96330.25;;;10.47;65.29
45078;BME280;60508;42.622;25.416;2024-01-06T13:04:30;96334.31;;;10.50;65.32
45078;BME280;60508;42.622;25.416;2024-01-06T13:07:17;96324.06;;;10.47;65.26
45078;BME280;60508;42.622;25.416;2024-01-06T13:09:44;96319.66;;;10.35;65.92
45078;BME280;60508;42.622;25.416;2024-01-06T13:12:11;96312.91;;;10.33;66.62
45078;BME280;60508;42.622;25.416;2024-01-06T13:14:58;96318.22;;;10.28;67.02
45078;BME280;60508;42.622;25.416;2024-01-06T13:17:26;96306.59;;;10.22;67.59
45078;BME280;60508;42.622;25.416;2024-01-06T13:20:12;96309.53;;;10.20;67.88
45078;BME280;60508;42.622;25.416;2024-01-06T13:22:39;96312.22;;;10.43;66.94
45078;BME280;60508;42.622;25.416;2024-01-06T13:25:27;96298.78;;;10.43;67.16
45078;BME280;60508;42.622;25.416;2024-01-06T13:27:54;96298.78;;;10.43;67.31